Time;durP1;ratioP1;P1;durP2;ratioP2;P2;SDS_P1;SDS_P2;PMS_P1;PMS_P2;Temp;Humidity;BMP_temperature;BMP_pressure;BME280_temperature;BME280_humidity;BME280_pressure;Samples;Min_cycle;Max_cycle;Signal;HPM_P1;HPM_P2
2022/12/11 00:00:38;;;;;;;19.73;7.83;;;0.40;99.90;;;;;;4997564;28;20459;-72
2022/12/11 00:03:04;;;;;;;19.83;8.25;;;0.40;99.90;;;;;;4991167;28;20698;-72
2022/12/11 00:05:29;;;;;;;32.43;9.43;;;0.40;99.90;;;;;;4996381;28;20120;-71
2022/12/11 00:07:56;;;;;;;28.03;8.33;;;0.50;99.90;;;;;;4995306;28;20034;-71
2022/12/11 00:10:21;;;;;;;31.83;10.13;;;0.50;99.90;;;;;;5012732;28;20061;-71
2022/12/11 00:12:47;;;;;;;34.37;9.27;;;0.50;99.90;;;;;;5000834;28;20536;-71
2022/12/11 00:15:13;;;;;;;31.73;10.83;;;0.50;99.90;;;;;;5008821;28;20103;-71
2022/12/11 00:17:41;;;;;;;29.60;9.90;;;0.50;99.90;;;;;;4999502;28;20056;-71
2022/12/11 00:20:08;;;;;;;32.05;9.63;;;0.50;99.90;;;;;;5000457;28;20034;-71
2022/12/11 00:22:33;;;;;;;;;;;0.50;99.90;;;;;;5000665;28;20072;-71
2022/12/11 00:24:59;;;;;;;23.00;7.78;;;0.50;99.90;;;;;;5013052;28;19921;-71
2022/12/11 00:27:25;;;;;;;25.77;7.97;;;0.50;99.90;;;;;;5015001;28;20049;-71
2022/12/11 00:29:50;;;;;;;28.80;8.70;;;0.50;99.90;;;;;;4998734;28;20068;-71
2022/12/11 00:32:16;;;;;;;20.27;7.80;;;0.50;99.90;;;;;;4996765;28;20050;-71
2022/12/11 00:34:42;;;;;;;36.57;9.73;;;0.60;99.90;;;;;;4996981;28;20049;-71
2022/12/11 00:37:07;;;;;;;27.80;8.87;;;0.50;99.90;;;;;;5001392;28;20456;-71
2022/12/11 00:39:33;;;;;;;36.03;9.97;;;0.50;99.90;;;;;;4995485;28;20419;-71
2022/12/11 00:41:58;;;;;;;25.93;10.07;;;0.50;99.90;;;;;;4996775;28;20491;-71
2022/12/11 00:44:24;;;;;;;24.53;8.13;;;0.50;99.90;;;;;;5002391;28;20034;-71
2022/12/11 00:46:52;;;;;;;23.30;8.60;;;0.50;99.90;;;;;;4995293;28;20046;-71
2022/12/11 00:49:18;;;;;;;25.33;9.10;;;0.50;99.90;;;;;;4992977;28;20046;-71
2022/12/11 00:51:44;;;;;;;30.17;9.47;;;0.60;99.90;;;;;;4999508;28;20096;-71
2022/12/11 00:54:09;;;;;;;30.20;9.03;;;0.50;99.90;;;;;;4996403;28;20049;-71
2022/12/11 00:56:35;;;;;;;29.57;9.50;;;0.60;99.90;;;;;;4997919;28;20057;-71
2022/12/11 00:59:00;;;;;;;34.67;9.57;;;0.50;99.90;;;;;;4998421;28;20463;-71
2022/12/11 01:01:26;;;;;;;26.50;8.77;;;0.60;99.90;;;;;;4994078;28;20069;-71
2022/12/11 01:03:52;;;;;;;26.63;8.17;;;0.60;99.90;;;;;;4998491;28;20165;-71
2022/12/11 01:06:21;;;;;;;32.25;10.43;;;0.60;99.90;;;;;;4991981;28;20039;-71
2022/12/11 01:08:47;;;;;;;30.05;9.98;;;0.60;99.90;;;;;;4999468;28;20274;-71
2022/12/11 01:11:15;;;;;;;27.33;9.48;;;0.60;99.90;;;;;;4992299;28;20046;-70
2022/12/11 01:13:41;;;;;;;24.42;7.93;;;0.60;99.90;;;;;;4991576;28;20046;-70
2022/12/11 01:16:10;;;;;;;30.38;9.13;;;0.60;99.90;;;;;;4995363;28;20034;-70
2022/12/11 01:18:37;;;;;;;25.77;8.57;;;0.60;99.90;;;;;;4996412;28;20160;-70
2022/12/11 01:21:07;;;;;;;31.23;9.20;;;0.60;99.90;;;;;;4994516;28;20072;-70
2022/12/11 01:23:33;;;;;;;27.38;9.85;;;0.60;99.90;;;;;;4997348;28;20272;-70
2022/12/11 01:26:07;;;;;;;30.30;10.00;;;0.70;99.90;;;;;;4992531;28;20202;-71
2022/12/11 01:28:33;;;;;;;28.85;8.80;;;0.60;99.90;;;;;;4998797;28;20333;-70
2022/12/11 01:30:59;;;;;;;26.23;9.87;;;0.70;99.90;;;;;;4997168;28;20042;-70
2022/12/11 01:33:25;;;;;;;28.30;10.03;;;0.70;99.90;;;;;;4995679;28;20076;-70
2022/12/11 01:35:51;;;;;;;37.70;10.40;;;0.70;99.90;;;;;;4998528;28;20118;-70
2022/12/11 01:38:16;;;;;;;26.80;9.63;;;0.70;99.90;;;;;;4995717;28;20768;-70
2022/12/11 01:40:50;;;;;;;23.73;9.13;;;0.70;99.90;;;;;;4999332;28;20455;-70
2022/12/11 01:43:16;;;;;;;32.47;10.27;;;0.70;99.90;;;;;;4994023;28;20044;-70
2022/12/11 01:45:46;;;;;;;24.05;8.57;;;0.70;99.90;;;;;;4995687;28;20038;-70
2022/12/11 01:48:22;;;;;;;32.63;10.25;;;0.70;99.90;;;;;;5003857;28;20518;-71
2022/12/11 01:51:00;;;;;;;34.17;10.35;;;0.70;99.90;;;;;;4995232;28;20361;-71
2022/12/11 01:53:42;;;;;;;26.95;8.43;;;0.80;99.90;;;;;;5013477;28;20358;-70
2022/12/11 01:56:09;;;;;;;31.45;9.27;;;0.80;99.90;;;;;;4998101;28;20052;-70
2022/12/11 01:58:43;;;;;;;30.05;10.40;;;0.80;99.90;;;;;;5000021;28;20134;-70
2022/12/11 02:01:13;;;;;;;34.00;10.18;;;0.80;99.90;;;;;;4997278;28;20064;-70
2022/12/11 02:03:39;;;;;;;34.72;10.35;;;0.80;99.90;;;;;;4999808;28;20531;-71
2022/12/11 02:06:05;;;;;;;27.97;10.20;;;0.80;99.90;;;;;;4999850;28;20044;-71
2022/12/11 02:08:31;;;;;;;24.30;9.63;;;0.80;99.90;;;;;;5001624;28;20433;-70
2022/12/11 02:11:10;;;;;;;30.00;8.80;;;0.80;99.90;;;;;;5000963;28;20037;-70
2022/12/11 02:13:52;;;;;;;29.02;9.95;;;0.90;99.90;;;;;;4998871;28;20060;-71
2022/12/11 02:16:28;;;;;;;40.97;11.63;;;0.90;99.90;;;;;;4993947;28;20191;-70
2022/12/11 02:19:13;;;;;;;31.30;8.40;;;0.80;99.90;;;;;;5000450;28;20041;-71
2022/12/11 02:21:48;;;;;;;30.75;9.68;;;0.90;99.90;;;;;;5000454;28;20624;-70
2022/12/11 02:24:34;;;;;;;28.63;9.68;;;0.90;99.90;;;;;;4993980;28;20066;-70
2022/12/11 02:27:23;;;;;;;36.33;10.70;;;0.90;99.90;;;;;;4995545;28;20243;-71
2022/12/11 02:29:55;;;;;;;26.48;10.38;;;0.90;99.90;;;;;;5001615;28;20119;-70
2022/12/11 02:32:30;;;;;;;29.13;9.23;;;0.90;99.90;;;;;;4985503;28;20030;-70
2022/12/11 02:35:17;;;;;;;26.35;9.07;;;0.90;99.90;;;;;;4991616;28;20188;-70
2022/12/11 02:37:47;;;;;;;30.80;8.93;;;0.90;99.90;;;;;;4997542;28;20093;-70
2022/12/11 02:40:18;;;;;;;35.90;9.18;;;0.90;99.90;;;;;;4994469;28;20049;-71
2022/12/11 02:42:46;;;;;;;39.92;9.85;;;0.90;99.90;;;;;;4992422;28;21270;-71
2022/12/11 02:45:14;;;;;;;41.20;9.77;;;0.90;99.90;;;;;;4998793;28;20057;-71
2022/12/11 02:47:42;;;;;;;39.80;10.32;;;0.90;99.90;;;;;;5003138;28;20100;-70
2022/12/11 02:50:11;;;;;;;30.77;10.45;;;1.00;99.90;;;;;;5005419;28;20097;-70
2022/12/11 02:52:39;;;;;;;27.25;9.70;;;0.90;99.90;;;;;;5014333;28;20097;-70
2022/12/11 02:55:07;;;;;;;28.40;10.25;;;0.90;99.90;;;;;;4996208;28;20046;-74
2022/12/11 02:57:55;;;;;;;30.35;8.75;;;0.90;99.90;;;;;;5003124;28;20526;-71
2022/12/11 03:00:21;;;;;;;30.45;10.13;;;1.00;99.90;;;;;;5001989;28;20281;-70
2022/12/11 03:02:47;;;;;;;32.17;9.53;;;1.00;99.90;;;;;;4999329;28;20269;-71
2022/12/11 03:05:13;;;;;;;20.97;8.53;;;1.00;99.90;;;;;;4999897;28;20038;-71
2022/12/11 03:07:40;;;;;;;33.63;10.20;;;1.00;99.90;;;;;;5002109;28;20915;-71
2022/12/11 03:10:10;;;;;;;28.20;10.27;;;1.00;99.90;;;;;;5004245;28;20046;-71
2022/12/11 03:12:39;;;;;;;25.65;8.05;;;1.00;99.90;;;;;;4997564;28;20050;-71
2022/12/11 03:15:09;;;;;;;28.17;9.57;;;1.00;99.90;;;;;;5002562;28;20470;-71
2022/12/11 03:17:50;;;;;;;28.25;9.73;;;1.00;99.90;;;;;;4995428;28;20136;-71
2022/12/11 03:20:34;;;;;;;35.65;9.48;;;1.00;99.90;;;;;;4998584;28;20038;-71
2022/12/11 03:23:12;;;;;;;36.05;11.25;;;1.00;99.90;;;;;;5003675;28;20433;-71
2022/12/11 03:25:55;;;;;;;29.70;9.70;;;0.90;99.90;;;;;;4987656;28;20038;-71
2022/12/11 03:28:30;;;;;;;31.25;10.05;;;1.00;99.90;;;;;;5003184;28;20054;-70
2022/12/11 03:31:01;;;;;;;29.98;8.77;;;1.00;99.90;;;;;;4999892;28;20124;-71
2022/12/11 03:33:33;;;;;;;38.92;9.02;;;1.00;99.90;;;;;;4998222;28;20447;-71
2022/12/11 03:36:23;;;;;;;29.52;9.82;;;1.00;99.90;;;;;;4997935;28;20116;-71
2022/12/11 03:38:58;;;;;;;28.23;9.68;;;1.00;99.90;;;;;;5004977;28;20081;-70
2022/12/11 03:41:26;;;;;;;39.58;9.98;;;1.10;99.90;;;;;;4988650;28;20157;-71
2022/12/11 03:43:54;;;;;;;32.53;9.57;;;1.00;99.90;;;;;;5003719;28;20371;-71
2022/12/11 03:46:23;;;;;;;32.53;9.48;;;1.00;99.90;;;;;;4999363;28;20050;-71
2022/12/11 03:48:51;;;;;;;26.73;8.68;;;1.10;99.90;;;;;;5004959;28;20676;-71
2022/12/11 03:51:17;;;;;;;32.95;9.75;;;1.00;99.90;;;;;;5019254;28;20088;-71
2022/12/11 03:53:44;;;;;;;26.17;8.43;;;1.00;99.90;;;;;;5001154;28;20282;-71
2022/12/11 03:56:12;;;;;;;31.17;8.68;;;1.00;99.90;;;;;;4998515;28;20153;-71
2022/12/11 03:58:38;;;;;;;32.17;9.85;;;1.00;99.90;;;;;;5002962;28;20073;-71
2022/12/11 04:01:09;;;;;;;37.47;9.93;;;1.10;99.90;;;;;;4998900;28;20069;-71
2022/12/11 04:03:35;;;;;;;28.70;8.55;;;1.00;99.90;;;;;;5004653;28;20058;-71
2022/12/11 04:06:01;;;;;;;38.80;10.45;;;1.10;99.90;;;;;;4997891;28;20100;-71
2022/12/11 04:08:26;;;;;;;30.77;9.80;;;1.00;99.90;;;;;;5009237;28;20500;-71
2022/12/11 04:13:38;;;;;;;32.45;9.45;;;1.10;99.90;;;;;;4998572;28;20235;-71
2022/12/11 04:16:04;;;;;;;31.10;9.85;;;1.10;99.90;;;;;;4998336;28;20049;-73
2022/12/11 04:24:16;;;;;;;33.28;10.82;;;1.10;99.90;;;;;;5000608;28;20151;-71
2022/12/11 04:26:44;;;;;;;28.75;9.02;;;1.10;99.90;;;;;;5004915;28;20045;-71
2022/12/11 04:29:10;;;;;;;35.42;11.13;;;1.10;99.90;;;;;;5001991;28;20401;-71
2022/12/11 04:31:36;;;;;;;26.60;9.93;;;1.00;99.90;;;;;;5000375;28;20037;-71
2022/12/11 04:34:01;;;;;;;36.63;10.77;;;1.10;99.90;;;;;;5002862;28;20145;-71
2022/12/11 04:36:27;;;;;;;42.83;9.53;;;1.10;99.90;;;;;;5002930;28;20463;-71
2022/12/11 04:38:53;;;;;;;33.00;9.53;;;1.00;99.90;;;;;;5015897;28;20097;-71
2022/12/11 04:41:18;;;;;;;40.93;9.23;;;1.00;99.90;;;;;;4994678;28;20034;-71
2022/12/11 04:43:44;;;;;;;26.87;8.83;;;1.00;99.90;;;;;;4997485;28;20136;-71
2022/12/11 04:46:14;;;;;;;32.77;11.17;;;1.00;99.90;;;;;;4998438;28;20055;-71
2022/12/11 04:48:40;;;;;;;37.65;10.65;;;1.10;99.90;;;;;;4996360;28;20376;-71
2022/12/11 04:51:06;;;;;;;29.00;9.20;;;1.10;99.90;;;;;;5003099;28;20033;-71
2022/12/11 04:53:32;;;;;;;33.38;9.75;;;1.00;99.90;;;;;;5001594;28;20054;-71
2022/12/11 04:55:58;;;;;;;28.55;9.60;;;1.10;99.90;;;;;;5001411;28;20077;-70
2022/12/11 04:58:24;;;;;;;34.10;9.53;;;1.10;99.90;;;;;;5012780;22;20124;-65
2022/12/11 05:00:50;;;;;;;32.55;9.52;;;1.10;99.90;;;;;;4974814;28;20266;-65
2022/12/11 05:03:16;;;;;;;31.77;10.10;;;1.10;99.90;;;;;;4973994;28;20094;-65
2022/12/11 05:05:50;;;;;;;30.13;10.13;;;1.10;99.90;;;;;;4979529;28;20455;-65
2022/12/11 05:08:17;;;;;;;36.55;9.75;;;1.10;99.90;;;;;;4972425;28;21022;-65
2022/12/11 05:10:43;;;;;;;38.13;10.77;;;1.00;99.90;;;;;;4984413;28;21119;-65
2022/12/11 05:13:09;;;;;;;25.90;9.13;;;1.10;99.90;;;;;;4983387;28;20053;-65
2022/12/11 05:15:39;;;;;;;30.47;10.10;;;1.10;99.90;;;;;;4972426;28;20367;-65
2022/12/11 05:18:04;;;;;;;34.45;8.77;;;1.10;99.90;;;;;;4980932;28;20551;-65
2022/12/11 05:20:30;;;;;;;32.53;9.60;;;1.10;99.90;;;;;;4976226;28;20042;-65
2022/12/11 05:22:56;;;;;;;28.90;10.00;;;1.10;99.90;;;;;;4984789;28;20409;-65
2022/12/11 05:25:21;;;;;;;28.80;9.50;;;1.10;99.90;;;;;;4993134;28;20042;-67
2022/12/11 05:27:47;;;;;;;31.70;9.90;;;1.10;99.90;;;;;;4980817;28;20121;-65
2022/12/11 05:30:12;;;;;;;35.53;9.70;;;1.10;99.90;;;;;;4980380;28;20510;-65
2022/12/11 05:32:38;;;;;;;34.70;9.83;;;1.10;99.90;;;;;;4982952;28;20042;-65
2022/12/11 05:35:04;;;;;;;38.67;10.90;;;1.10;99.90;;;;;;4982067;28;20046;-65
2022/12/11 05:37:32;;;;;;;30.05;9.70;;;1.10;99.90;;;;;;4986625;28;20053;-65
2022/12/11 05:39:57;;;;;;;29.10;8.80;;;1.10;99.90;;;;;;4985582;28;20463;-65
2022/12/11 05:42:23;;;;;;;41.77;11.40;;;1.10;99.90;;;;;;4984126;28;20377;-65
2022/12/11 05:44:49;;;;;;;32.63;10.53;;;1.10;99.90;;;;;;4979684;28;20077;-65
2022/12/11 05:47:15;;;;;;;34.73;9.60;;;1.10;99.90;;;;;;4982940;28;20416;-66
2022/12/11 05:49:41;;;;;;;31.58;9.70;;;1.10;99.90;;;;;;4987759;28;20038;-65
2022/12/11 05:52:06;;;;;;;32.17;10.37;;;1.10;99.90;;;;;;4988638;28;20049;-65
2022/12/11 05:54:32;;;;;;;27.77;10.40;;;1.10;99.90;;;;;;4986014;28;20034;-65
2022/12/11 05:56:57;;;;;;;30.50;9.43;;;1.10;99.90;;;;;;4984082;28;20342;-65
2022/12/11 05:59:23;;;;;;;38.33;11.03;;;1.10;99.90;;;;;;4987762;28;20444;-65
2022/12/11 06:01:49;;;;;;;30.23;8.47;;;1.10;99.90;;;;;;4985522;28;20053;-65
2022/12/11 06:04:14;;;;;;;31.83;9.37;;;1.20;99.90;;;;;;4981894;28;20061;-65
2022/12/11 06:06:42;;;;;;;33.10;9.50;;;1.20;99.90;;;;;;4987585;28;20034;-65
2022/12/11 06:09:13;;;;;;;31.25;9.77;;;1.10;99.90;;;;;;4983888;28;20073;-65
2022/12/11 06:11:38;;;;;;;29.85;8.27;;;1.20;99.90;;;;;;4977919;28;20042;-65
2022/12/11 06:14:04;;;;;;;33.40;9.50;;;1.10;99.90;;;;;;4983206;28;20504;-65
2022/12/11 06:16:30;;;;;;;31.53;9.00;;;1.20;99.90;;;;;;4983560;28;20091;-65
2022/12/11 06:18:57;;;;;;;29.23;8.45;;;1.10;99.90;;;;;;4984344;28;20056;-65
2022/12/11 06:21:29;;;;;;;27.33;9.98;;;1.10;99.90;;;;;;4981322;28;20072;-65
2022/12/11 06:23:57;;;;;;;27.58;8.00;;;1.20;99.90;;;;;;4975466;28;20045;-65
2022/12/11 06:26:24;;;;;;;32.45;9.75;;;1.20;99.90;;;;;;4981337;28;20077;-65
2022/12/11 06:28:49;;;;;;;31.40;9.93;;;1.20;99.90;;;;;;4987594;28;20054;-65
2022/12/11 06:31:16;;;;;;;31.10;9.60;;;1.20;99.90;;;;;;4984840;28;20053;-65
2022/12/11 06:33:42;;;;;;;39.75;9.60;;;1.20;99.90;;;;;;4981726;28;20045;-65
2022/12/11 06:36:11;;;;;;;28.95;9.07;;;1.20;99.90;;;;;;4980143;28;20121;-65
2022/12/11 06:38:37;;;;;;;30.52;10.25;;;1.20;99.90;;;;;;4982326;28;20034;-65
2022/12/11 06:41:04;;;;;;;37.97;10.35;;;1.20;99.90;;;;;;4979561;28;20038;-65
2022/12/11 06:43:34;;;;;;;32.13;9.77;;;1.20;99.90;;;;;;4982679;28;20555;-65
2022/12/11 06:46:11;;;;;;;33.22;9.68;;;1.20;99.90;;;;;;4974941;28;20051;-65
2022/12/11 06:48:37;;;;;;;;;;;1.20;99.90;;;;;;4977143;28;20050;-65
2022/12/11 06:51:07;;;;;;;23.77;8.63;;;1.20;99.90;;;;;;4980800;28;20450;-65
2022/12/11 06:53:34;;;;;;;32.20;8.18;;;1.20;99.90;;;;;;4983049;28;20078;-66
2022/12/11 06:56:05;;;;;;;29.52;9.63;;;1.20;99.90;;;;;;4980526;28;20100;-65
2022/12/11 06:58:32;;;;;;;31.35;9.50;;;1.20;99.90;;;;;;4985222;28;20416;-65
2022/12/11 07:00:58;;;;;;;38.00;10.05;;;1.20;99.90;;;;;;4981004;28;20124;-66
2022/12/11 07:03:24;;;;;;;33.37;10.13;;;1.20;99.90;;;;;;4984458;28;20488;-65
2022/12/11 07:05:49;;;;;;;31.97;9.17;;;1.20;99.90;;;;;;4982799;28;20542;-65
2022/12/11 07:08:15;;;;;;;36.97;9.50;;;1.20;99.90;;;;;;4984968;28;20168;-66
2022/12/11 07:10:41;;;;;;;33.60;9.93;;;1.20;99.90;;;;;;4983805;28;20531;-65
2022/12/11 07:13:06;;;;;;;37.93;10.73;;;1.20;99.90;;;;;;4982358;28;20049;-65
2022/12/11 07:15:32;;;;;;;38.97;10.57;;;1.20;99.90;;;;;;4985900;28;20107;-65
2022/12/11 07:17:57;;;;;;;28.10;9.50;;;1.20;99.90;;;;;;4986633;28;20299;-65
2022/12/11 07:20:23;;;;;;;37.87;9.83;;;1.20;99.90;;;;;;4985190;28;21471;-65
2022/12/11 07:22:49;;;;;;;32.33;8.47;;;1.20;99.90;;;;;;4979410;28;20424;-65
2022/12/11 07:25:15;;;;;;;32.30;10.67;;;1.20;99.90;;;;;;4980887;28;20030;-65
2022/12/11 07:27:40;;;;;;;31.50;10.80;;;1.20;99.90;;;;;;4981396;28;20042;-65
2022/12/11 07:30:07;;;;;;;28.13;9.53;;;1.20;99.90;;;;;;4983844;28;20049;-65
2022/12/11 07:32:33;;;;;;;33.13;10.52;;;1.20;99.90;;;;;;4981042;28;20061;-65
2022/12/11 07:34:58;;;;;;;37.67;10.23;;;1.20;99.90;;;;;;4985653;28;20080;-65
2022/12/11 07:37:24;;;;;;;30.80;9.60;;;1.20;99.90;;;;;;4985158;28;20068;-65
2022/12/11 07:39:50;;;;;;;34.43;9.90;;;1.20;99.90;;;;;;4983584;28;20084;-65
2022/12/11 07:42:15;;;;;;;37.03;10.03;;;1.20;99.90;;;;;;4984186;28;20114;-65
2022/12/11 07:44:41;;;;;;;36.83;10.67;;;1.10;99.90;;;;;;4999519;28;20393;-65
2022/12/11 07:47:07;;;;;;;33.67;11.03;;;1.10;99.90;;;;;;4981452;28;20093;-65
2022/12/11 07:49:32;;;;;;;33.47;11.33;;;1.20;99.90;;;;;;4984141;28;20097;-65
2022/12/11 07:51:58;;;;;;;37.00;11.23;;;1.20;99.90;;;;;;4973820;28;20042;-65
2022/12/11 07:54:23;;;;;;;26.97;10.17;;;1.20;99.90;;;;;;4978695;28;20104;-65
2022/12/11 07:56:49;;;;;;;29.13;9.67;;;1.20;99.90;;;;;;4975976;28;20050;-65
2022/12/11 07:59:15;;;;;;;32.80;11.47;;;1.20;99.90;;;;;;4985508;28;20412;-65
2022/12/11 08:01:42;;;;;;;33.10;10.57;;;1.20;99.90;;;;;;4990914;28;20425;-67
2022/12/11 08:04:10;;;;;;;32.80;11.32;;;1.20;99.90;;;;;;4984075;28;20034;-65
2022/12/11 08:06:37;;;;;;;34.72;10.93;;;1.20;99.90;;;;;;4977705;28;20042;-65
2022/12/11 08:09:06;;;;;;;38.45;11.07;;;1.30;99.90;;;;;;4984525;28;20041;-65
2022/12/11 08:11:32;;;;;;;35.65;10.40;;;1.20;99.90;;;;;;4979759;28;20053;-65
2022/12/11 08:14:01;;;;;;;39.30;10.82;;;1.20;99.90;;;;;;4982705;28;20038;-65
2022/12/11 08:16:27;;;;;;;35.35;11.38;;;1.30;99.90;;;;;;4978267;28;20041;-65
2022/12/11 08:18:54;;;;;;;30.45;10.15;;;1.20;99.90;;;;;;4985743;28;20038;-66
2022/12/11 08:21:24;;;;;;;37.80;10.52;;;1.30;99.90;;;;;;4985103;28;20294;-65
2022/12/11 08:23:51;;;;;;;25.90;9.82;;;1.30;99.90;;;;;;4979383;28;20388;-66
2022/12/11 08:26:26;;;;;;;34.75;12.18;;;1.30;99.90;;;;;;4984979;28;20433;-65
2022/12/11 08:28:52;;;;;;;38.70;11.13;;;1.30;99.90;;;;;;4984715;28;20073;-65
2022/12/11 08:31:19;;;;;;;48.83;12.13;;;1.30;99.90;;;;;;4984293;28;20038;-65
2022/12/11 08:33:44;;;;;;;36.25;10.38;;;1.20;99.90;;;;;;4975965;28;20043;-65
2022/12/11 08:36:13;;;;;;;43.17;11.77;;;1.30;99.90;;;;;;4978739;28;20101;-65
2022/12/11 08:38:39;;;;;;;34.30;10.80;;;1.30;99.90;;;;;;4981041;28;20039;-65
2022/12/11 08:41:12;;;;;;;32.30;11.43;;;1.30;99.90;;;;;;4979904;28;20093;-65
2022/12/11 08:43:38;;;;;;;34.28;10.57;;;1.30;99.90;;;;;;4981058;28;20038;-66
2022/12/11 08:46:05;;;;;;;36.57;10.43;;;1.30;99.90;;;;;;4981848;28;20573;-65
2022/12/11 08:48:32;;;;;;;34.47;11.45;;;1.30;99.90;;;;;;4966258;28;20291;-66
2022/12/11 08:50:59;;;;;;;;;;;1.30;99.90;;;;;;4976087;28;20176;-66
2022/12/11 08:53:24;;;;;;;33.60;9.73;;;1.30;99.90;;;;;;4979842;28;19922;-65
2022/12/11 08:55:50;;;;;;;40.70;10.43;;;1.40;99.90;;;;;;4981885;28;20289;-64
2022/12/11 08:58:15;;;;;;;34.83;10.97;;;1.30;99.90;;;;;;4986528;28;20419;-65
2022/12/11 09:00:41;;;;;;;35.00;11.23;;;1.30;99.90;;;;;;4998049;28;20089;-65
2022/12/11 09:03:08;;;;;;;31.03;11.07;;;1.30;99.90;;;;;;4983983;28;20030;-65
2022/12/11 09:05:33;;;;;;;;;;;1.40;99.90;;;;;;4980598;28;20046;-69
2022/12/11 09:07:59;;;;;;;38.45;10.20;;;1.40;99.90;;;;;;4975690;28;19925;-65
2022/12/11 09:10:25;;;;;;;32.40;9.73;;;1.40;99.90;;;;;;4979995;28;20616;-65
2022/12/11 09:12:50;;;;;;;34.63;12.10;;;1.40;99.90;;;;;;4982298;28;20130;-65
2022/12/11 09:15:16;;;;;;;34.17;11.63;;;1.40;99.90;;;;;;4982763;28;20049;-65
2022/12/11 09:17:42;;;;;;;32.08;9.27;;;1.40;99.90;;;;;;4981828;28;20027;-65
2022/12/11 09:20:08;;;;;;;32.85;11.13;;;1.40;99.90;;;;;;4983003;28;20049;-66
2022/12/11 09:22:36;;;;;;;36.77;11.73;;;1.40;99.90;;;;;;5000155;28;20501;-66
2022/12/11 09:25:02;;;;;;;45.28;12.02;;;1.40;99.90;;;;;;4981210;28;20289;-66
2022/12/11 09:27:28;;;;;;;38.60;11.63;;;1.50;99.90;;;;;;4985531;28;20089;-65
2022/12/11 09:29:53;;;;;;;30.20;10.63;;;1.50;99.90;;;;;;4977281;28;20043;-67
2022/12/11 09:32:19;;;;;;;37.00;10.67;;;1.50;99.90;;;;;;4983453;28;20390;-67
2022/12/11 09:34:45;;;;;;;39.13;11.63;;;1.50;99.90;;;;;;4975880;28;20039;-67
2022/12/11 09:37:10;;;;;;;36.67;11.30;;;1.50;99.90;;;;;;4981867;28;20042;-67
2022/12/11 09:39:36;;;;;;;46.13;12.30;;;1.50;99.90;;;;;;4984578;28;20039;-67
2022/12/11 09:42:24;;;;;;;39.83;12.03;;;1.50;99.90;;;;;;4982414;28;20122;-67
2022/12/11 09:44:53;;;;;;;35.65;12.05;;;1.60;99.90;;;;;;4983208;28;20096;-67
2022/12/11 09:47:35;;;;;;;40.70;10.75;;;1.60;99.90;;;;;;4979023;28;20084;-67
2022/12/11 09:50:18;;;;;;;32.63;11.35;;;1.60;99.90;;;;;;4973856;28;20121;-68
2022/12/11 09:52:59;;;;;;;38.22;12.05;;;1.60;99.90;;;;;;4973866;28;20532;-67
2022/12/11 09:55:34;;;;;;;31.90;10.82;;;1.60;99.90;;;;;;4981971;28;20038;-67
2022/12/11 09:58:22;;;;;;;35.72;11.35;;;1.60;99.90;;;;;;4979074;28;20046;-67
2022/12/11 10:01:00;;;;;;;;;;;1.60;99.90;;;;;;4975682;28;20089;-70
2022/12/11 10:03:39;;;;;;;41.65;12.00;;;1.60;99.90;;;;;;4982428;28;20273;-70
2022/12/11 10:06:22;;;;;;;36.30;11.48;;;1.60;99.90;;;;;;4979105;28;20052;-70
2022/12/11 10:09:13;;;;;;;28.40;9.88;;;1.60;99.90;;;;;;4974742;28;20054;-70
2022/12/11 10:11:53;;;;;;;41.15;13.18;;;1.60;99.90;;;;;;4973099;28;20042;-70
2022/12/11 10:14:40;;;;;;;39.40;12.02;;;1.70;99.90;;;;;;4973478;28;20046;-76
2022/12/11 10:17:22;;;;;;;38.08;11.55;;;1.70;99.90;;;;;;4982078;28;20436;-70
2022/12/11 10:19:48;;;;;;;40.58;13.13;;;1.70;99.90;;;;;;4982019;28;20073;-70
2022/12/11 10:22:28;;;;;;;41.55;12.05;;;1.70;99.90;;;;;;4977242;28;20253;-70
2022/12/11 10:25:02;;;;;;;32.97;11.95;;;1.70;99.90;;;;;;4982722;28;20569;-70
2022/12/11 10:27:33;;;;;;;39.58;12.45;;;1.70;99.90;;;;;;4983285;28;20074;-70
2022/12/11 10:30:19;;;;;;;37.90;12.18;;;1.70;99.90;;;;;;4974300;28;20454;-70
2022/12/11 10:33:00;;;;;;;34.83;11.95;;;1.80;99.90;;;;;;4975461;28;20563;-70
2022/12/11 10:35:38;;;;;;;39.42;12.43;;;1.80;99.90;;;;;;4981222;28;20097;-70
2022/12/11 10:38:09;;;;;;;30.42;11.55;;;1.80;99.90;;;;;;4989146;28;20034;-70
2022/12/11 10:40:42;;;;;;;36.30;12.38;;;1.90;99.90;;;;;;4981768;28;20080;-70
2022/12/11 10:43:08;;;;;;;34.35;10.68;;;1.90;99.90;;;;;;4982124;28;20038;-70
2022/12/11 10:45:33;;;;;;;36.17;11.37;;;1.90;99.90;;;;;;4982633;28;20073;-70
2022/12/11 10:48:04;;;;;;;42.23;13.10;;;1.90;99.90;;;;;;4982170;28;20073;-70
2022/12/11 10:50:30;;;;;;;35.35;11.73;;;1.90;99.90;;;;;;4977659;28;20055;-70
2022/12/11 10:52:57;;;;;;;41.83;12.70;;;1.90;99.90;;;;;;4981006;28;20042;-70
2022/12/11 10:55:44;;;;;;;30.85;11.38;;;1.90;99.90;;;;;;4980751;28;20038;-70
2022/12/11 11:05:45;;;;;;;34.42;10.43;;;1.90;99.90;;;;;;5005101;22;20048;-71
2022/12/11 11:08:18;;;;;;;31.17;11.35;;;1.90;99.90;;;;;;5020763;28;20049;-71
2022/12/11 11:10:58;;;;;;;34.58;11.32;;;2.00;99.90;;;;;;4996285;28;20056;-71
2022/12/11 11:13:26;;;;;;;40.50;12.85;;;1.90;99.90;;;;;;5036679;28;20065;-71
2022/12/11 11:16:13;;;;;;;37.08;11.98;;;1.90;99.90;;;;;;5018702;28;20682;-71
2022/12/11 11:18:40;;;;;;;35.72;12.15;;;1.90;99.90;;;;;;5001522;28;20388;-72
2022/12/11 11:21:14;;;;;;;37.58;11.80;;;1.90;99.90;;;;;;4998797;28;20140;-72
2022/12/11 11:23:43;;;;;;;37.75;11.98;;;2.00;99.90;;;;;;4999255;28;20562;-71
2022/12/11 11:26:10;;;;;;;38.13;11.20;;;2.00;99.90;;;;;;5001690;28;20455;-71
2022/12/11 11:28:41;;;;;;;37.47;11.27;;;2.00;99.90;;;;;;4996989;28;20210;-71
2022/12/11 11:31:15;;;;;;;31.25;10.85;;;1.90;99.90;;;;;;4999976;28;20049;-71
2022/12/11 11:33:52;;;;;;;30.15;10.88;;;2.00;99.90;;;;;;5001451;28;20053;-72
2022/12/11 11:36:30;;;;;;;37.30;11.32;;;2.00;99.90;;;;;;5012745;28;20042;-70
2022/12/11 11:39:25;;;;;;;38.20;11.35;;;2.00;99.90;;;;;;5002070;28;20342;-70
2022/12/11 11:42:07;;;;;;;31.48;12.02;;;2.10;99.90;;;;;;4994589;28;20124;-69
2022/12/11 11:44:41;;;;;;;30.88;11.68;;;2.10;99.90;;;;;;4993028;28;20384;-70
2022/12/11 11:47:23;;;;;;;33.83;11.68;;;2.10;99.90;;;;;;5000234;28;20125;-72
2022/12/11 11:50:14;;;;;;;37.88;11.55;;;2.10;99.90;;;;;;4996988;28;20187;-69
2022/12/11 11:52:52;;;;;;;31.73;12.63;;;2.10;99.90;;;;;;4982332;28;20052;-72
2022/12/11 11:55:27;;;;;;;29.75;11.05;;;2.10;99.90;;;;;;4983060;28;20088;-70
2022/12/11 11:57:58;;;;;;;31.92;11.00;;;2.20;99.90;;;;;;4990432;28;20326;-71
2022/12/11 12:00:26;;;;;;;34.20;11.35;;;2.10;99.90;;;;;;4996908;28;20054;-71
2022/12/11 12:02:59;;;;;;;30.92;10.45;;;2.20;99.90;;;;;;4999519;28;20060;-71
2022/12/11 12:05:35;;;;;;;31.63;11.25;;;2.10;99.90;;;;;;4999378;28;20048;-71
2022/12/11 12:08:29;;;;;;;33.92;11.55;;;2.20;99.90;;;;;;5004188;28;20121;-71
2022/12/11 12:11:14;;;;;;;34.45;11.13;;;2.20;99.90;;;;;;4987227;28;20046;-71
2022/12/11 12:13:54;;;;;;;33.08;10.55;;;2.20;99.90;;;;;;4996837;28;20141;-71
2022/12/11 12:16:35;;;;;;;29.00;10.68;;;2.20;99.90;;;;;;5014430;28;20042;-71
2022/12/11 12:19:13;;;;;;;31.55;11.85;;;2.20;99.90;;;;;;5001039;28;20112;-71
2022/12/11 12:21:43;;;;;;;29.05;10.55;;;2.20;99.90;;;;;;4999049;28;20077;-71
2022/12/11 12:24:21;;;;;;;32.90;10.93;;;2.20;99.90;;;;;;5000314;28;20156;-71
2022/12/11 12:27:16;;;;;;;29.30;10.07;;;2.20;99.90;;;;;;4998612;28;20357;-71
2022/12/11 12:30:14;;;;;;;29.83;10.55;;;2.20;99.90;;;;;;4979147;28;20077;-71
2022/12/11 12:33:07;;;;;;;36.38;10.80;;;2.20;99.90;;;;;;4997894;28;20217;-71
2022/12/11 12:35:35;;;;;;;31.95;9.88;;;2.20;99.90;;;;;;4999013;28;20099;-71
2022/12/11 12:38:09;;;;;;;31.50;11.68;;;2.20;99.90;;;;;;4998934;28;20052;-71
2022/12/11 12:40:55;;;;;;;32.08;12.07;;;2.20;99.90;;;;;;4998815;28;20705;-71
2022/12/11 12:43:59;;;;;;;25.27;10.43;;;2.20;99.90;;;;;;4991742;28;20040;-71
2022/12/11 12:46:48;;;;;;;30.55;11.70;;;2.30;99.90;;;;;;5000689;28;20569;-71
2022/12/11 12:49:20;;;;;;;30.90;10.65;;;2.30;99.90;;;;;;4996397;28;20038;-71
2022/12/11 12:51:46;;;;;;;26.08;10.45;;;2.30;99.90;;;;;;4994896;28;20069;-71
2022/12/11 12:54:16;;;;;;;25.20;9.07;;;2.30;99.90;;;;;;4995245;28;20069;-71
2022/12/11 12:56:43;;;;;;;31.75;10.60;;;2.30;99.90;;;;;;5000641;28;20062;-71
2022/12/11 12:59:24;;;;;;;27.90;10.90;;;2.20;99.90;;;;;;4997701;28;20442;-71
2022/12/11 13:01:57;;;;;;;31.42;11.32;;;2.30;99.90;;;;;;4997632;28;20545;-71
2022/12/11 13:04:36;;;;;;;27.35;11.10;;;2.30;99.90;;;;;;4998978;28;20080;-71
2022/12/11 13:07:31;;;;;;;28.20;10.20;;;2.30;99.90;;;;;;5018503;28;20557;-72
2022/12/11 13:10:22;;;;;;;26.10;10.38;;;2.30;99.90;;;;;;4991484;28;20483;-71
2022/12/11 13:12:48;;;;;;;26.38;9.95;;;2.30;99.90;;;;;;4992413;28;20167;-71
2022/12/11 13:15:25;;;;;;;27.83;10.38;;;2.30;99.90;;;;;;4999301;28;20038;-71